sensor_id;sensor_type;location;lat;lon;timestamp;P1;durP1;ratioP1;P2;durP2;ratioP2
30850;SDS011;17567;48.382;9.102;2023-09-07T00:03:13;4.00;;;3.50;;
30850;SDS011;17567;48.382;9.102;2023-09-07T00:08:14;3.47;;;3.13;;
30850;SDS011;17567;48.382;9.102;2023-09-07T00:13:15;3.67;;;3.20;;
30850;SDS011;17567;48.382;9.102;2023-09-07T00:18:17;3.97;;;2.73;;
30850;SDS011;17567;48.382;9.102;2023-09-07T00:23:18;3.83;;;3.53;;
30850;SDS011;17567;48.382;9.102;2023-09-07T00:28:19;3.90;;;3.60;;
30850;SDS011;17567;48.382;9.102;2023-09-07T00:33:20;6.90;;;3.17;;
30850;SDS011;17567;48.382;9.102;2023-09-07T00:38:21;3.33;;;3.03;;
30850;SDS011;17567;48.382;9.102;2023-09-07T00:43:24;2.53;;;2.33;;
30850;SDS011;17567;48.382;9.102;2023-09-07T00:48:25;3.43;;;2.83;;
30850;SDS011;17567;48.382;9.102;2023-09-07T00:53:29;3.70;;;3.30;;
30850;SDS011;17567;48.382;9.102;2023-09-07T00:58:30;3.20;;;2.90;;
30850;SDS011;17567;48.382;9.102;2023-09-07T01:03:31;5.83;;;2.90;;
30850;SDS011;17567;48.382;9.102;2023-09-07T01:08:36;3.03;;;2.83;;
30850;SDS011;17567;48.382;9.102;2023-09-07T01:13:39;4.20;;;3.20;;
30850;SDS011;17567;48.382;9.102;2023-09-07T01:18:42;5.10;;;3.30;;
30850;SDS011;17567;48.382;9.102;2023-09-07T01:23:43;3.23;;;3.03;;
30850;SDS011;17567;48.382;9.102;2023-09-07T01:28:48;3.80;;;3.50;;
30850;SDS011;17567;48.382;9.102;2023-09-07T01:33:49;2.87;;;2.67;;
30850;SDS011;17567;48.382;9.102;2023-09-07T01:38:49;7.03;;;4.27;;
30850;SDS011;17567;48.382;9.102;2023-09-07T01:43:50;3.67;;;3.37;;
30850;SDS011;17567;48.382;9.102;2023-09-07T01:48:50;3.87;;;3.43;;
30850;SDS011;17567;48.382;9.102;2023-09-07T01:53:51;3.30;;;3.10;;
30850;SDS011;17567;48.382;9.102;2023-09-07T01:58:54;5.53;;;3.80;;
30850;SDS011;17567;48.382;9.102;2023-09-07T02:03:55;3.10;;;2.90;;
30850;SDS011;17567;48.382;9.102;2023-09-07T02:08:56;4.47;;;4.07;;
30850;SDS011;17567;48.382;9.102;2023-09-07T02:13:56;9.30;;;7.50;;
30850;SDS011;17567;48.382;9.102;2023-09-07T02:19:00;7.73;;;6.03;;
30850;SDS011;17567;48.382;9.102;2023-09-07T02:24:03;7.53;;;6.33;;
30850;SDS011;17567;48.382;9.102;2023-09-07T02:29:04;6.30;;;5.17;;
30850;SDS011;17567;48.382;9.102;2023-09-07T02:34:06;4.63;;;4.20;;
30850;SDS011;17567;48.382;9.102;2023-09-07T02:39:07;4.43;;;3.80;;
30850;SDS011;17567;48.382;9.102;2023-09-07T02:44:08;4.17;;;3.87;;
30850;SDS011;17567;48.382;9.102;2023-09-07T02:49:09;4.40;;;4.00;;
30850;SDS011;17567;48.382;9.102;2023-09-07T02:54:09;4.03;;;3.73;;
30850;SDS011;17567;48.382;9.102;2023-09-07T02:59:10;4.10;;;3.73;;
30850;SDS011;17567;48.382;9.102;2023-09-07T03:04:11;4.97;;;4.00;;
30850;SDS011;17567;48.382;9.102;2023-09-07T03:09:11;5.27;;;4.87;;
30850;SDS011;17567;48.382;9.102;2023-09-07T03:14:12;4.30;;;3.97;;
30850;SDS011;17567;48.382;9.102;2023-09-07T03:19:19;4.40;;;4.10;;
30850;SDS011;17567;48.382;9.102;2023-09-07T03:24:19;4.10;;;3.70;;
30850;SDS011;17567;48.382;9.102;2023-09-07T03:29:20;4.83;;;4.20;;
30850;SDS011;17567;48.382;9.102;2023-09-07T03:34:21;4.93;;;4.50;;
30850;SDS011;17567;48.382;9.102;2023-09-07T03:39:21;5.63;;;4.60;;
30850;SDS011;17567;48.382;9.102;2023-09-07T03:44:22;4.20;;;3.87;;
30850;SDS011;17567;48.382;9.102;2023-09-07T03:49:23;4.63;;;4.20;;
30850;SDS011;17567;48.382;9.102;2023-09-07T03:54:23;5.20;;;3.97;;
30850;SDS011;17567;48.382;9.102;2023-09-07T03:59:24;6.57;;;4.33;;
30850;SDS011;17567;48.382;9.102;2023-09-07T04:04:27;5.37;;;4.87;;
30850;SDS011;17567;48.382;9.102;2023-09-07T04:09:27;5.83;;;4.90;;
30850;SDS011;17567;48.382;9.102;2023-09-07T04:14:28;5.23;;;4.73;;
30850;SDS011;17567;48.382;9.102;2023-09-07T04:19:29;7.23;;;6.17;;
30850;SDS011;17567;48.382;9.102;2023-09-07T04:24:30;6.13;;;5.63;;
30850;SDS011;17567;48.382;9.102;2023-09-07T04:29:30;5.33;;;4.93;;
30850;SDS011;17567;48.382;9.102;2023-09-07T04:34:31;5.93;;;5.43;;
30850;SDS011;17567;48.382;9.102;2023-09-07T04:39:32;6.83;;;4.90;;
30850;SDS011;17567;48.382;9.102;2023-09-07T04:44:33;6.80;;;5.70;;
30850;SDS011;17567;48.382;9.102;2023-09-07T04:49:33;6.20;;;5.70;;
30850;SDS011;17567;48.382;9.102;2023-09-07T04:54:34;5.57;;;5.07;;
30850;SDS011;17567;48.382;9.102;2023-09-07T04:59:35;7.10;;;6.40;;
30850;SDS011;17567;48.382;9.102;2023-09-07T05:04:35;6.00;;;5.40;;
30850;SDS011;17567;48.382;9.102;2023-09-07T05:09:36;6.53;;;6.03;;
30850;SDS011;17567;48.382;9.102;2023-09-07T05:14:37;7.30;;;6.70;;
30850;SDS011;17567;48.382;9.102;2023-09-07T05:19:37;10.10;;;7.37;;
30850;SDS011;17567;48.382;9.102;2023-09-07T05:24:38;9.30;;;7.67;;
30850;SDS011;17567;48.382;9.102;2023-09-07T05:29:39;6.70;;;6.00;;
30850;SDS011;17567;48.382;9.102;2023-09-07T05:34:39;6.43;;;5.80;;
30850;SDS011;17567;48.382;9.102;2023-09-07T05:39:40;6.30;;;5.70;;
30850;SDS011;17567;48.382;9.102;2023-09-07T05:44:40;8.50;;;7.67;;
30850;SDS011;17567;48.382;9.102;2023-09-07T05:49:41;6.40;;;5.90;;
30850;SDS011;17567;48.382;9.102;2023-09-07T05:54:42;6.70;;;6.00;;
30850;SDS011;17567;48.382;9.102;2023-09-07T05:59:42;8.17;;;6.90;;
30850;SDS011;17567;48.382;9.102;2023-09-07T06:04:43;8.43;;;7.47;;
30850;SDS011;17567;48.382;9.102;2023-09-07T06:09:44;9.30;;;8.43;;
30850;SDS011;17567;48.382;9.102;2023-09-07T06:14:45;10.30;;;7.80;;
30850;SDS011;17567;48.382;9.102;2023-09-07T06:19:46;10.37;;;9.30;;
30850;SDS011;17567;48.382;9.102;2023-09-07T06:24:47;10.20;;;9.13;;
30850;SDS011;17567;48.382;9.102;2023-09-07T06:29:49;9.73;;;8.77;;
30850;SDS011;17567;48.382;9.102;2023-09-07T06:34:50;11.80;;;9.10;;
30850;SDS011;17567;48.382;9.102;2023-09-07T06:39:52;9.63;;;8.70;;
30850;SDS011;17567;48.382;9.102;2023-09-07T06:44:52;9.97;;;8.97;;
30850;SDS011;17567;48.382;9.102;2023-09-07T06:49:56;10.50;;;8.57;;
30850;SDS011;17567;48.382;9.102;2023-09-07T06:54:59;11.40;;;10.03;;
30850;SDS011;17567;48.382;9.102;2023-09-07T07:00:00;9.70;;;8.70;;
30850;SDS011;17567;48.382;9.102;2023-09-07T07:05:05;12.60;;;10.43;;
30850;SDS011;17567;48.382;9.102;2023-09-07T07:10:06;12.37;;;8.43;;
30850;SDS011;17567;48.382;9.102;2023-09-07T07:15:08;10.93;;;8.60;;
30850;SDS011;17567;48.382;9.102;2023-09-07T07:20:09;10.03;;;9.03;;
30850;SDS011;17567;48.382;9.102;2023-09-07T07:25:10;10.30;;;9.07;;
30850;SDS011;17567;48.382;9.102;2023-09-07T07:30:11;8.50;;;7.67;;
30850;SDS011;17567;48.382;9.102;2023-09-07T07:35:12;7.97;;;7.27;;
30850;SDS011;17567;48.382;9.102;2023-09-07T07:40:15;7.93;;;7.23;;
30850;SDS011;17567;48.382;9.102;2023-09-07T07:45:15;8.67;;;7.87;;
30850;SDS011;17567;48.382;9.102;2023-09-07T07:50:20;8.83;;;8.03;;
30850;SDS011;17567;48.382;9.102;2023-09-07T07:55:21;13.10;;;7.70;;
30850;SDS011;17567;48.382;9.102;2023-09-07T08:00:24;8.23;;;7.57;;
30850;SDS011;17567;48.382;9.102;2023-09-07T08:05:24;8.90;;;8.00;;
30850;SDS011;17567;48.382;9.102;2023-09-07T08:10:25;8.10;;;7.30;;
30850;SDS011;17567;48.382;9.102;2023-09-07T08:15:26;9.37;;;7.87;;
30850;SDS011;17567;48.382;9.102;2023-09-07T08:20:27;10.90;;;7.47;;
30850;SDS011;17567;48.382;9.102;2023-09-07T08:25:30;8.20;;;7.23;;
30850;SDS011;17567;48.382;9.102;2023-09-07T08:30:30;8.57;;;7.73;;
30850;SDS011;17567;48.382;9.102;2023-09-07T08:35:31;10.40;;;7.20;;
30850;SDS011;17567;48.382;9.102;2023-09-07T08:40:35;8.00;;;7.20;;
30850;SDS011;17567;48.382;9.102;2023-09-07T08:45:37;8.20;;;7.43;;
30850;SDS011;17567;48.382;9.102;2023-09-07T08:50:41;9.47;;;7.77;;
30850;SDS011;17567;48.382;9.102;2023-09-07T08:55:42;7.53;;;6.83;;
30850;SDS011;17567;48.382;9.102;2023-09-07T09:00:43;18.67;;;8.40;;
30850;SDS011;17567;48.382;9.102;2023-09-07T09:05:44;14.90;;;8.13;;
30850;SDS011;17567;48.382;9.102;2023-09-07T09:10:46;8.63;;;7.00;;
30850;SDS011;17567;48.382;9.102;2023-09-07T09:15:47;8.77;;;6.93;;
30850;SDS011;17567;48.382;9.102;2023-09-07T09:20:48;9.30;;;7.03;;
30850;SDS011;17567;48.382;9.102;2023-09-07T09:25:49;9.48;;;6.57;;
30850;SDS011;17567;48.382;9.102;2023-09-07T09:30:50;8.02;;;6.93;;
30850;SDS011;17567;48.382;9.102;2023-09-07T09:35:51;8.18;;;6.45;;
30850;SDS011;17567;48.382;9.102;2023-09-07T09:40:53;6.38;;;5.78;;
30850;SDS011;17567;48.382;9.102;2023-09-07T09:45:54;6.72;;;6.03;;
30850;SDS011;17567;48.382;9.102;2023-09-07T09:50:56;7.40;;;6.10;;
30850;SDS011;17567;48.382;9.102;2023-09-07T09:55:58;11.93;;;6.00;;
30850;SDS011;17567;48.382;9.102;2023-09-07T10:00:59;6.38;;;5.82;;
30850;SDS011;17567;48.382;9.102;2023-09-07T10:06:09;7.15;;;6.55;;
30850;SDS011;17567;48.382;9.102;2023-09-07T10:11:13;6.72;;;6.13;;
30850;SDS011;17567;48.382;9.102;2023-09-07T10:16:14;6.57;;;5.97;;
30850;SDS011;17567;48.382;9.102;2023-09-07T10:21:15;8.52;;;6.18;;
30850;SDS011;17567;48.382;9.102;2023-09-07T10:26:16;6.90;;;5.80;;
30850;SDS011;17567;48.382;9.102;2023-09-07T10:31:18;6.47;;;5.70;;
30850;SDS011;17567;48.382;9.102;2023-09-07T10:36:23;10.35;;;5.85;;
30850;SDS011;17567;48.382;9.102;2023-09-07T10:41:27;7.53;;;5.97;;
30850;SDS011;17567;48.382;9.102;2023-09-07T10:46:28;8.77;;;5.35;;
30850;SDS011;17567;48.382;9.102;2023-09-07T10:51:28;5.38;;;4.95;;
30850;SDS011;17567;48.382;9.102;2023-09-07T10:56:29;5.90;;;5.30;;
30850;SDS011;17567;48.382;9.102;2023-09-07T11:01:30;5.82;;;5.32;;
30850;SDS011;17567;48.382;9.102;2023-09-07T11:06:31;5.43;;;5.00;;
30850;SDS011;17567;48.382;9.102;2023-09-07T11:11:32;8.75;;;5.60;;
30850;SDS011;17567;48.382;9.102;2023-09-07T11:16:33;7.15;;;5.70;;
30850;SDS011;17567;48.382;9.102;2023-09-07T11:21:35;6.32;;;5.47;;
30850;SDS011;17567;48.382;9.102;2023-09-07T11:26:46;5.20;;;4.70;;
30850;SDS011;17567;48.382;9.102;2023-09-07T11:31:47;6.35;;;5.75;;
30850;SDS011;17567;48.382;9.102;2023-09-07T11:36:48;5.75;;;5.00;;
30850;SDS011;17567;48.382;9.102;2023-09-07T11:41:49;5.18;;;4.78;;
30850;SDS011;17567;48.382;9.102;2023-09-07T11:46:51;6.93;;;5.75;;
30850;SDS011;17567;48.382;9.102;2023-09-07T11:51:52;5.82;;;5.32;;
30850;SDS011;17567;48.382;9.102;2023-09-07T11:56:53;5.97;;;4.85;;
30850;SDS011;17567;48.382;9.102;2023-09-07T12:01:54;8.20;;;5.70;;
30850;SDS011;17567;48.382;9.102;2023-09-07T12:06:55;5.72;;;5.10;;
30850;SDS011;17567;48.382;9.102;2023-09-07T12:11:56;6.00;;;5.20;;
30850;SDS011;17567;48.382;9.102;2023-09-07T12:16:57;5.97;;;5.13;;
30850;SDS011;17567;48.382;9.102;2023-09-07T12:21:58;5.50;;;5.00;;
30850;SDS011;17567;48.382;9.102;2023-09-07T12:26:59;5.78;;;5.25;;
30850;SDS011;17567;48.382;9.102;2023-09-07T12:32:00;6.85;;;4.47;;
30850;SDS011;17567;48.382;9.102;2023-09-07T12:37:01;5.20;;;4.80;;
30850;SDS011;17567;48.382;9.102;2023-09-07T12:42:05;5.50;;;4.50;;
30850;SDS011;17567;48.382;9.102;2023-09-07T12:47:06;9.40;;;4.72;;
30850;SDS011;17567;48.382;9.102;2023-09-07T12:52:07;4.53;;;3.70;;
30850;SDS011;17567;48.382;9.102;2023-09-07T12:57:09;5.32;;;4.68;;
30850;SDS011;17567;48.382;9.102;2023-09-07T13:02:10;4.80;;;4.38;;
30850;SDS011;17567;48.382;9.102;2023-09-07T13:07:11;5.38;;;4.63;;
30850;SDS011;17567;48.382;9.102;2023-09-07T13:12:13;4.65;;;4.25;;
30850;SDS011;17567;48.382;9.102;2023-09-07T13:17:14;6.68;;;4.45;;
30850;SDS011;17567;48.382;9.102;2023-09-07T13:22:16;5.18;;;4.47;;
30850;SDS011;17567;48.382;9.102;2023-09-07T13:27:17;6.03;;;4.13;;
30850;SDS011;17567;48.382;9.102;2023-09-07T13:32:19;6.38;;;4.85;;
30850;SDS011;17567;48.382;9.102;2023-09-07T13:37:20;5.50;;;4.15;;
30850;SDS011;17567;48.382;9.102;2023-09-07T13:42:21;6.18;;;4.53;;
30850;SDS011;17567;48.382;9.102;2023-09-07T13:47:22;5.28;;;4.78;;
30850;SDS011;17567;48.382;9.102;2023-09-07T13:52:23;5.38;;;4.22;;
30850;SDS011;17567;48.382;9.102;2023-09-07T13:57:24;5.22;;;4.47;;
30850;SDS011;17567;48.382;9.102;2023-09-07T14:02:25;9.55;;;4.78;;
30850;SDS011;17567;48.382;9.102;2023-09-07T14:07:26;6.20;;;4.43;;
30850;SDS011;17567;48.382;9.102;2023-09-07T14:12:27;4.88;;;4.50;;
30850;SDS011;17567;48.382;9.102;2023-09-07T14:17:28;5.30;;;4.35;;
30850;SDS011;17567;48.382;9.102;2023-09-07T14:22:29;4.30;;;3.90;;
30850;SDS011;17567;48.382;9.102;2023-09-07T14:27:30;4.75;;;4.15;;
30850;SDS011;17567;48.382;9.102;2023-09-07T14:32:32;4.18;;;3.70;;
30850;SDS011;17567;48.382;9.102;2023-09-07T14:37:33;7.93;;;4.10;;
30850;SDS011;17567;48.382;9.102;2023-09-07T14:42:34;3.70;;;3.40;;
30850;SDS011;17567;48.382;9.102;2023-09-07T14:47:35;3.83;;;3.45;;
30850;SDS011;17567;48.382;9.102;2023-09-07T14:52:36;4.00;;;3.70;;
30850;SDS011;17567;48.382;9.102;2023-09-07T14:57:40;5.75;;;3.63;;
30850;SDS011;17567;48.382;9.102;2023-09-07T15:02:42;5.35;;;3.53;;
30850;SDS011;17567;48.382;9.102;2023-09-07T15:07:43;3.70;;;3.28;;
30850;SDS011;17567;48.382;9.102;2023-09-07T15:12:44;3.83;;;3.35;;
30850;SDS011;17567;48.382;9.102;2023-09-07T15:17:48;3.30;;;3.08;;
30850;SDS011;17567;48.382;9.102;2023-09-07T15:22:50;3.90;;;3.22;;
30850;SDS011;17567;48.382;9.102;2023-09-07T15:27:51;4.68;;;3.30;;
30850;SDS011;17567;48.382;9.102;2023-09-07T15:32:52;3.40;;;3.10;;
30850;SDS011;17567;48.382;9.102;2023-09-07T15:37:53;3.67;;;3.38;;
30850;SDS011;17567;48.382;9.102;2023-09-07T15:42:54;3.22;;;2.92;;
30850;SDS011;17567;48.382;9.102;2023-09-07T15:47:55;3.35;;;3.08;;
30850;SDS011;17567;48.382;9.102;2023-09-07T15:52:57;3.17;;;2.90;;
30850;SDS011;17567;48.382;9.102;2023-09-07T15:57:58;3.25;;;3.00;;
30850;SDS011;17567;48.382;9.102;2023-09-07T16:02:59;4.72;;;3.67;;
30850;SDS011;17567;48.382;9.102;2023-09-07T16:08:00;3.85;;;3.55;;
30850;SDS011;17567;48.382;9.102;2023-09-07T16:13:02;3.55;;;3.30;;
30850;SDS011;17567;48.382;9.102;2023-09-07T16:18:03;6.75;;;3.25;;
30850;SDS011;17567;48.382;9.102;2023-09-07T16:23:04;3.28;;;3.08;;
30850;SDS011;17567;48.382;9.102;2023-09-07T16:28:06;4.85;;;3.70;;
30850;SDS011;17567;48.382;9.102;2023-09-07T16:33:07;3.80;;;3.45;;
30850;SDS011;17567;48.382;9.102;2023-09-07T16:38:08;4.00;;;3.63;;
30850;SDS011;17567;48.382;9.102;2023-09-07T16:43:09;5.55;;;3.97;;
30850;SDS011;17567;48.382;9.102;2023-09-07T16:48:10;3.83;;;3.38;;
30850;SDS011;17567;48.382;9.102;2023-09-07T16:53:12;5.18;;;3.47;;
30850;SDS011;17567;48.382;9.102;2023-09-07T16:58:13;8.13;;;3.97;;
30850;SDS011;17567;48.382;9.102;2023-09-07T17:03:14;3.85;;;3.55;;
30850;SDS011;17567;48.382;9.102;2023-09-07T17:08:15;4.78;;;4.00;;
30850;SDS011;17567;48.382;9.102;2023-09-07T17:13:17;7.55;;;4.70;;
30850;SDS011;17567;48.382;9.102;2023-09-07T17:18:18;4.97;;;4.50;;
30850;SDS011;17567;48.382;9.102;2023-09-07T17:23:19;5.43;;;4.85;;
30850;SDS011;17567;48.382;9.102;2023-09-07T17:28:20;5.40;;;4.93;;
30850;SDS011;17567;48.382;9.102;2023-09-07T17:33:20;6.40;;;4.28;;
30850;SDS011;17567;48.382;9.102;2023-09-07T17:38:22;4.90;;;4.40;;
30850;SDS011;17567;48.382;9.102;2023-09-07T17:43:23;5.25;;;4.85;;
30850;SDS011;17567;48.382;9.102;2023-09-07T17:48:24;6.43;;;4.78;;
30850;SDS011;17567;48.382;9.102;2023-09-07T17:53:25;5.13;;;4.63;;
30850;SDS011;17567;48.382;9.102;2023-09-07T17:58:26;5.80;;;5.38;;
30850;SDS011;17567;48.382;9.102;2023-09-07T18:03:27;7.07;;;5.45;;
30850;SDS011;17567;48.382;9.102;2023-09-07T18:08:27;5.40;;;4.90;;
30850;SDS011;17567;48.382;9.102;2023-09-07T18:13:28;5.78;;;5.20;;
30850;SDS011;17567;48.382;9.102;2023-09-07T18:18:29;5.13;;;4.72;;
30850;SDS011;17567;48.382;9.102;2023-09-07T18:23:29;7.13;;;4.90;;
30850;SDS011;17567;48.382;9.102;2023-09-07T18:28:31;6.68;;;5.35;;
30850;SDS011;17567;48.382;9.102;2023-09-07T18:33:31;5.90;;;5.40;;
30850;SDS011;17567;48.382;9.102;2023-09-07T18:38:32;6.07;;;5.45;;
30850;SDS011;17567;48.382;9.102;2023-09-07T18:43:33;5.25;;;4.85;;
30850;SDS011;17567;48.382;9.102;2023-09-07T18:48:34;7.63;;;5.43;;
30850;SDS011;17567;48.382;9.102;2023-09-07T18:53:35;6.38;;;5.75;;
30850;SDS011;17567;48.382;9.102;2023-09-07T18:58:38;6.47;;;5.88;;
30850;SDS011;17567;48.382;9.102;2023-09-07T19:03:38;5.95;;;5.43;;
30850;SDS011;17567;48.382;9.102;2023-09-07T19:08:43;5.82;;;5.43;;
30850;SDS011;17567;48.382;9.102;2023-09-07T19:13:44;6.82;;;6.30;;
30850;SDS011;17567;48.382;9.102;2023-09-07T19:18:45;7.93;;;5.95;;
30850;SDS011;17567;48.382;9.102;2023-09-07T19:23:45;6.00;;;5.50;;
30850;SDS011;17567;48.382;9.102;2023-09-07T19:28:46;6.30;;;5.68;;
30850;SDS011;17567;48.382;9.102;2023-09-07T19:33:47;10.13;;;6.63;;
30850;SDS011;17567;48.382;9.102;2023-09-07T19:38:50;7.75;;;6.97;;
30850;SDS011;17567;48.382;9.102;2023-09-07T19:43:53;9.18;;;6.82;;
30850;SDS011;17567;48.382;9.102;2023-09-07T19:48:54;9.07;;;6.20;;
30850;SDS011;17567;48.382;9.102;2023-09-07T19:53:55;6.90;;;6.20;;
30850;SDS011;17567;48.382;9.102;2023-09-07T19:58:55;8.13;;;7.15;;
30850;SDS011;17567;48.382;9.102;2023-09-07T20:03:56;8.40;;;5.60;;
30850;SDS011;17567;48.382;9.102;2023-09-07T20:08:57;7.53;;;6.28;;
30850;SDS011;17567;48.382;9.102;2023-09-07T20:13:59;9.52;;;6.72;;
30850;SDS011;17567;48.382;9.102;2023-09-07T20:19:00;7.15;;;6.35;;
30850;SDS011;17567;48.382;9.102;2023-09-07T20:24:01;9.45;;;6.28;;
30850;SDS011;17567;48.382;9.102;2023-09-07T20:29:04;6.47;;;5.88;;
30850;SDS011;17567;48.382;9.102;2023-09-07T20:34:05;6.68;;;6.07;;
30850;SDS011;17567;48.382;9.102;2023-09-07T20:39:06;6.70;;;6.00;;
30850;SDS011;17567;48.382;9.102;2023-09-07T20:44:07;7.32;;;6.45;;
30850;SDS011;17567;48.382;9.102;2023-09-07T20:49:07;6.90;;;6.25;;
30850;SDS011;17567;48.382;9.102;2023-09-07T20:54:09;8.27;;;5.93;;
30850;SDS011;17567;48.382;9.102;2023-09-07T20:59:10;6.22;;;5.63;;
30850;SDS011;17567;48.382;9.102;2023-09-07T21:04:15;6.70;;;6.10;;
30850;SDS011;17567;48.382;9.102;2023-09-07T21:09:16;6.60;;;6.10;;
30850;SDS011;17567;48.382;9.102;2023-09-07T21:14:17;12.90;;;6.43;;
30850;SDS011;17567;48.382;9.102;2023-09-07T21:19:18;7.30;;;6.70;;
30850;SDS011;17567;48.382;9.102;2023-09-07T21:24:19;13.63;;;6.80;;
30850;SDS011;17567;48.382;9.102;2023-09-07T21:29:21;9.07;;;6.93;;
30850;SDS011;17567;48.382;9.102;2023-09-07T21:34:22;6.90;;;6.30;;
30850;SDS011;17567;48.382;9.102;2023-09-07T21:39:23;5.93;;;5.43;;
30850;SDS011;17567;48.382;9.102;2023-09-07T21:44:24;7.17;;;5.53;;
30850;SDS011;17567;48.382;9.102;2023-09-07T21:49:25;7.47;;;5.50;;
30850;SDS011;17567;48.382;9.102;2023-09-07T21:54:26;7.73;;;5.63;;
30850;SDS011;17567;48.382;9.102;2023-09-07T21:59:27;5.93;;;5.33;;
30850;SDS011;17567;48.382;9.102;2023-09-07T22:04:28;7.77;;;5.60;;
30850;SDS011;17567;48.382;9.102;2023-09-07T22:09:31;6.83;;;5.23;;
30850;SDS011;17567;48.382;9.102;2023-09-07T22:14:32;6.30;;;5.40;;
30850;SDS011;17567;48.382;9.102;2023-09-07T22:19:33;6.93;;;5.50;;
30850;SDS011;17567;48.382;9.102;2023-09-07T22:24:34;8.17;;;5.53;;
30850;SDS011;17567;48.382;9.102;2023-09-07T22:29:37;5.77;;;5.17;;
30850;SDS011;17567;48.382;9.102;2023-09-07T22:34:42;6.47;;;5.60;;
30850;SDS011;17567;48.382;9.102;2023-09-07T22:39:43;6.00;;;5.40;;
30850;SDS011;17567;48.382;9.102;2023-09-07T22:44:44;6.70;;;5.70;;
30850;SDS011;17567;48.382;9.102;2023-09-07T22:49:45;5.87;;;5.30;;
30850;SDS011;17567;48.382;9.102;2023-09-07T22:54:46;5.67;;;5.20;;
30850;SDS011;17567;48.382;9.102;2023-09-07T22:59:47;5.87;;;5.37;;
30850;SDS011;17567;48.382;9.102;2023-09-07T23:04:48;5.93;;;5.23;;
30850;SDS011;17567;48.382;9.102;2023-09-07T23:09:49;9.47;;;5.63;;
30850;SDS011;17567;48.382;9.102;2023-09-07T23:14:50;6.40;;;5.43;;
30850;SDS011;17567;48.382;9.102;2023-09-07T23:19:52;6.87;;;6.17;;
30850;SDS011;17567;48.382;9.102;2023-09-07T23:24:53;6.67;;;6.07;;
30850;SDS011;17567;48.382;9.102;2023-09-07T23:29:55;6.43;;;5.40;;
30850;SDS011;17567;48.382;9.102;2023-09-07T23:34:56;6.13;;;5.60;;
30850;SDS011;17567;48.382;9.102;2023-09-07T23:39:57;7.03;;;6.33;;
30850;SDS011;17567;48.382;9.102;2023-09-07T23:44:58;5.93;;;5.43;;
30850;SDS011;17567;48.382;9.102;2023-09-07T23:49:58;8.37;;;6.00;;
30850;SDS011;17567;48.382;9.102;2023-09-07T23:54:59;7.57;;;5.33;;
